sensor_id;sensor_type;location;lat;lon;timestamp;pressure;altitude;pressure_sealevel;temperature;humidity
24610;BME280;12758;47.890;11.694;2022-12-07T00:01:29;93704.25;;;2.22;100.00
24610;BME280;12758;47.890;11.694;2022-12-07T00:03:57;93693.16;;;2.33;100.00
24610;BME280;12758;47.890;11.694;2022-12-07T00:06:30;93693.63;;;2.41;100.00
24610;BME280;12758;47.890;11.694;2022-12-07T00:08:58;93688.78;;;2.43;100.00
24610;BME280;12758;47.890;11.694;2022-12-07T00:11:24;93687.66;;;2.49;100.00
24610;BME280;12758;47.890;11.694;2022-12-07T00:13:51;93690.03;;;2.21;100.00
24610;BME280;12758;47.890;11.694;2022-12-07T00:16:19;93684.78;;;2.40;100.00
24610;BME280;12758;47.890;11.694;2022-12-07T00:18:46;93692.66;;;2.31;100.00
24610;BME280;12758;47.890;11.694;2022-12-07T00:21:15;93687.09;;;2.52;100.00
24610;BME280;12758;47.890;11.694;2022-12-07T00:23:43;93691.53;;;2.38;100.00
24610;BME280;12758;47.890;11.694;2022-12-07T00:26:11;93686.25;;;2.27;100.00
24610;BME280;12758;47.890;11.694;2022-12-07T00:28:37;93679.66;;;2.44;100.00
24610;BME280;12758;47.890;11.694;2022-12-07T00:31:05;93685.31;;;2.08;100.00
24610;BME280;12758;47.890;11.694;2022-12-07T00:33:31;93678.03;;;2.19;100.00
24610;BME280;12758;47.890;11.694;2022-12-07T00:35:58;93675.72;;;2.36;100.00
24610;BME280;12758;47.890;11.694;2022-12-07T00:38:26;93676.16;;;2.48;100.00
24610;BME280;12758;47.890;11.694;2022-12-07T00:40:57;93679.50;;;2.64;100.00
24610;BME280;12758;47.890;11.694;2022-12-07T00:43:24;93675.50;;;2.62;100.00
24610;BME280;12758;47.890;11.694;2022-12-07T00:45:50;93677.31;;;2.66;100.00
24610;BME280;12758;47.890;11.694;2022-12-07T00:48:17;93680.53;;;2.68;100.00
24610;BME280;12758;47.890;11.694;2022-12-07T00:50:43;93675.63;;;2.75;100.00
24610;BME280;12758;47.890;11.694;2022-12-07T00:53:09;93675.50;;;2.86;100.00
24610;BME280;12758;47.890;11.694;2022-12-07T00:55:35;93681.94;;;2.90;100.00
24610;BME280;12758;47.890;11.694;2022-12-07T00:58:02;93675.50;;;2.86;100.00
24610;BME280;12758;47.890;11.694;2022-12-07T01:00:28;93678.84;;;2.77;100.00
24610;BME280;12758;47.890;11.694;2022-12-07T01:02:54;93680.41;;;2.54;100.00
24610;BME280;12758;47.890;11.694;2022-12-07T01:05:20;93684.19;;;2.19;100.00
24610;BME280;12758;47.890;11.694;2022-12-07T01:07:46;93682.78;;;1.88;100.00
24610;BME280;12758;47.890;11.694;2022-12-07T01:10:12;93677.63;;;1.57;100.00
24610;BME280;12758;47.890;11.694;2022-12-07T01:12:38;93681.81;;;1.73;100.00
24610;BME280;12758;47.890;11.694;2022-12-07T01:15:07;93681.88;;;1.63;100.00
24610;BME280;12758;47.890;11.694;2022-12-07T01:17:33;93682.16;;;1.61;100.00
24610;BME280;12758;47.890;11.694;2022-12-07T01:19:59;93678.69;;;1.61;100.00
24610;BME280;12758;47.890;11.694;2022-12-07T01:22:26;93679.31;;;1.48;100.00
24610;BME280;12758;47.890;11.694;2022-12-07T01:24:52;93675.66;;;1.73;100.00
24610;BME280;12758;47.890;11.694;2022-12-07T01:27:18;93679.13;;;1.73;100.00
24610;BME280;12758;47.890;11.694;2022-12-07T01:29:44;93681.75;;;1.83;100.00
24610;BME280;12758;47.890;11.694;2022-12-07T01:32:11;93681.22;;;2.21;100.00
24610;BME280;12758;47.890;11.694;2022-12-07T01:34:37;93673.25;;;2.45;100.00
24610;BME280;12758;47.890;11.694;2022-12-07T01:37:03;93675.50;;;2.62;100.00
24610;BME280;12758;47.890;11.694;2022-12-07T01:39:29;93677.56;;;2.70;100.00
24610;BME280;12758;47.890;11.694;2022-12-07T01:41:55;93673.47;;;2.77;100.00
24610;BME280;12758;47.890;11.694;2022-12-07T01:44:22;93675.06;;;2.78;100.00
24610;BME280;12758;47.890;11.694;2022-12-07T01:46:49;93674.00;;;2.79;100.00
24610;BME280;12758;47.890;11.694;2022-12-07T01:49:21;93674.25;;;2.54;100.00
24610;BME280;12758;47.890;11.694;2022-12-07T01:51:48;93674.72;;;2.61;100.00
24610;BME280;12758;47.890;11.694;2022-12-07T01:54:16;93667.75;;;2.60;100.00
24610;BME280;12758;47.890;11.694;2022-12-07T01:56:50;93668.22;;;2.67;100.00
24610;BME280;12758;47.890;11.694;2022-12-07T01:59:18;93667.66;;;2.70;100.00
24610;BME280;12758;47.890;11.694;2022-12-07T02:01:45;93664.34;;;2.78;100.00
24610;BME280;12758;47.890;11.694;2022-12-07T02:04:11;93676.13;;;2.83;100.00
24610;BME280;12758;47.890;11.694;2022-12-07T02:06:39;93665.97;;;2.79;100.00
24610;BME280;12758;47.890;11.694;2022-12-07T02:09:07;93675.22;;;2.92;100.00
24610;BME280;12758;47.890;11.694;2022-12-07T02:11:33;93671.31;;;2.79;100.00
24610;BME280;12758;47.890;11.694;2022-12-07T02:13:59;93667.66;;;2.70;100.00
24610;BME280;12758;47.890;11.694;2022-12-07T02:16:29;93661.41;;;2.51;100.00
24610;BME280;12758;47.890;11.694;2022-12-07T02:19:04;93669.91;;;2.58;100.00
24610;BME280;12758;47.890;11.694;2022-12-07T02:21:40;93667.84;;;2.50;100.00
24610;BME280;12758;47.890;11.694;2022-12-07T02:24:14;93667.63;;;2.12;100.00
24610;BME280;12758;47.890;11.694;2022-12-07T02:26:55;93656.81;;;1.93;100.00
24610;BME280;12758;47.890;11.694;2022-12-07T02:29:30;93660.66;;;1.77;100.00
24610;BME280;12758;47.890;11.694;2022-12-07T02:32:03;93652.72;;;2.01;100.00
24610;BME280;12758;47.890;11.694;2022-12-07T02:34:35;93656.59;;;2.19;100.00
24610;BME280;12758;47.890;11.694;2022-12-07T02:37:09;93659.09;;;2.10;100.00
24610;BME280;12758;47.890;11.694;2022-12-07T02:39:40;93651.50;;;2.22;100.00
24610;BME280;12758;47.890;11.694;2022-12-07T02:42:10;93654.84;;;2.38;100.00
24610;BME280;12758;47.890;11.694;2022-12-07T02:44:39;93653.75;;;2.39;100.00
24610;BME280;12758;47.890;11.694;2022-12-07T02:47:06;93647.13;;;2.61;100.00
24610;BME280;12758;47.890;11.694;2022-12-07T02:49:35;93644.34;;;2.42;100.00
24610;BME280;12758;47.890;11.694;2022-12-07T02:52:02;93650.97;;;2.20;100.00
24610;BME280;12758;47.890;11.694;2022-12-07T02:54:28;93655.72;;;1.94;100.00
24610;BME280;12758;47.890;11.694;2022-12-07T02:56:57;93650.50;;;2.13;100.00
24610;BME280;12758;47.890;11.694;2022-12-07T02:59:32;93647.41;;;1.96;100.00
24610;BME280;12758;47.890;11.694;2022-12-07T03:02:20;93644.69;;;2.01;100.00
24610;BME280;12758;47.890;11.694;2022-12-07T03:04:52;93649.25;;;2.00;100.00
24610;BME280;12758;47.890;11.694;2022-12-07T03:07:30;93647.91;;;2.03;100.00
24610;BME280;12758;47.890;11.694;2022-12-07T03:10:02;93646.44;;;1.81;100.00
24610;BME280;12758;47.890;11.694;2022-12-07T03:12:31;93640.03;;;2.12;100.00
24610;BME280;12758;47.890;11.694;2022-12-07T03:15:01;93646.13;;;2.22;100.00
24610;BME280;12758;47.890;11.694;2022-12-07T03:17:31;93644.91;;;2.09;100.00
24610;BME280;12758;47.890;11.694;2022-12-07T03:20:00;93649.50;;;2.04;100.00
24610;BME280;12758;47.890;11.694;2022-12-07T03:22:30;93647.97;;;2.27;100.00
24610;BME280;12758;47.890;11.694;2022-12-07T03:24:58;93645.00;;;2.28;100.00
24610;BME280;12758;47.890;11.694;2022-12-07T03:27:26;93649.72;;;2.42;100.00
24610;BME280;12758;47.890;11.694;2022-12-07T03:29:58;93646.06;;;2.56;100.00
24610;BME280;12758;47.890;11.694;2022-12-07T03:32:28;93644.72;;;2.59;100.00
24610;BME280;12758;47.890;11.694;2022-12-07T03:34:59;93648.47;;;2.58;100.00
24610;BME280;12758;47.890;11.694;2022-12-07T03:37:32;93640.97;;;2.60;100.00
24610;BME280;12758;47.890;11.694;2022-12-07T03:40:03;93646.25;;;2.65;100.00
24610;BME280;12758;47.890;11.694;2022-12-07T03:42:32;93638.44;;;2.69;100.00
24610;BME280;12758;47.890;11.694;2022-12-07T03:44:59;93632.63;;;2.62;100.00
24610;BME280;12758;47.890;11.694;2022-12-07T03:47:27;93631.97;;;2.75;100.00
24610;BME280;12758;47.890;11.694;2022-12-07T03:49:58;93631.38;;;2.78;100.00
24610;BME280;12758;47.890;11.694;2022-12-07T03:52:30;93625.81;;;2.74;100.00
24610;BME280;12758;47.890;11.694;2022-12-07T03:55:02;93638.06;;;2.80;100.00
24610;BME280;12758;47.890;11.694;2022-12-07T03:57:31;93631.28;;;2.88;100.00
24610;BME280;12758;47.890;11.694;2022-12-07T03:59:58;93635.25;;;2.91;100.00
24610;BME280;12758;47.890;11.694;2022-12-07T04:02:26;93629.91;;;2.91;100.00
24610;BME280;12758;47.890;11.694;2022-12-07T04:04:53;93625.56;;;2.95;100.00
24610;BME280;12758;47.890;11.694;2022-12-07T04:07:20;93635.72;;;2.98;100.00
24610;BME280;12758;47.890;11.694;2022-12-07T04:09:46;93632.53;;;2.96;100.00
24610;BME280;12758;47.890;11.694;2022-12-07T04:12:12;93628.75;;;2.97;100.00
24610;BME280;12758;47.890;11.694;2022-12-07T04:14:38;93633.56;;;3.00;100.00
24610;BME280;12758;47.890;11.694;2022-12-07T04:17:04;93626.13;;;2.92;100.00
24610;BME280;12758;47.890;11.694;2022-12-07T04:19:32;93627.88;;;2.83;100.00
24610;BME280;12758;47.890;11.694;2022-12-07T04:21:59;93628.78;;;2.73;100.00
24610;BME280;12758;47.890;11.694;2022-12-07T04:24:26;93622.59;;;2.72;100.00
24610;BME280;12758;47.890;11.694;2022-12-07T04:26:53;93628.78;;;2.73;100.00
24610;BME280;12758;47.890;11.694;2022-12-07T04:29:19;93624.72;;;2.75;100.00
24610;BME280;12758;47.890;11.694;2022-12-07T04:31:45;93629.09;;;2.66;100.00
24610;BME280;12758;47.890;11.694;2022-12-07T04:34:12;93630.38;;;2.74;100.00
24610;BME280;12758;47.890;11.694;2022-12-07T04:36:38;93634.94;;;2.73;100.00
24610;BME280;12758;47.890;11.694;2022-12-07T04:39:06;93628.59;;;2.64;100.00
24610;BME280;12758;47.890;11.694;2022-12-07T04:41:33;93632.88;;;2.65;100.00
24610;BME280;12758;47.890;11.694;2022-12-07T04:44:01;93627.22;;;2.67;100.00
24610;BME280;12758;47.890;11.694;2022-12-07T04:46:28;93621.06;;;2.66;100.00
24610;BME280;12758;47.890;11.694;2022-12-07T04:48:55;93629.50;;;2.54;100.00
24610;BME280;12758;47.890;11.694;2022-12-07T04:51:22;93625.56;;;2.71;100.00
24610;BME280;12758;47.890;11.694;2022-12-07T04:53:49;93622.94;;;2.66;100.00
24610;BME280;12758;47.890;11.694;2022-12-07T04:56:15;93626.38;;;2.71;100.00
24610;BME280;12758;47.890;11.694;2022-12-07T04:58:43;93624.91;;;2.60;100.00
24610;BME280;12758;47.890;11.694;2022-12-07T05:01:09;93623.25;;;2.64;100.00
24610;BME280;12758;47.890;11.694;2022-12-07T05:03:35;93627.06;;;2.58;100.00
24610;BME280;12758;47.890;11.694;2022-12-07T05:06:02;93632.28;;;2.68;100.00
24610;BME280;12758;47.890;11.694;2022-12-07T05:08:28;93628.53;;;2.69;100.00
24610;BME280;12758;47.890;11.694;2022-12-07T05:10:54;93616.66;;;2.75;100.00
24610;BME280;12758;47.890;11.694;2022-12-07T05:13:20;93621.19;;;2.80;100.00
24610;BME280;12758;47.890;11.694;2022-12-07T05:15:47;93623.31;;;2.83;100.00
24610;BME280;12758;47.890;11.694;2022-12-07T05:18:13;93622.59;;;2.72;100.00
24610;BME280;12758;47.890;11.694;2022-12-07T05:20:40;93621.41;;;2.84;100.00
24610;BME280;12758;47.890;11.694;2022-12-07T05:23:06;93619.91;;;2.72;100.00
24610;BME280;12758;47.890;11.694;2022-12-07T05:25:32;93624.31;;;2.63;100.00
24610;BME280;12758;47.890;11.694;2022-12-07T05:27:58;93620.25;;;2.66;100.00
24610;BME280;12758;47.890;11.694;2022-12-07T05:30:24;93619.34;;;2.75;100.00
24610;BME280;12758;47.890;11.694;2022-12-07T05:32:51;93622.50;;;2.83;100.00
24610;BME280;12758;47.890;11.694;2022-12-07T05:35:18;93615.09;;;2.74;100.00
24610;BME280;12758;47.890;11.694;2022-12-07T05:37:44;93626.94;;;2.68;100.00
24610;BME280;12758;47.890;11.694;2022-12-07T05:40:11;93627.91;;;2.77;100.00
24610;BME280;12758;47.890;11.694;2022-12-07T05:42:37;93623.06;;;2.79;100.00
24610;BME280;12758;47.890;11.694;2022-12-07T05:45:05;93623.56;;;2.82;100.00
24610;BME280;12758;47.890;11.694;2022-12-07T05:47:31;93626.59;;;2.51;100.00
24610;BME280;12758;47.890;11.694;2022-12-07T05:49:58;93620.94;;;2.23;100.00
24610;BME280;12758;47.890;11.694;2022-12-07T05:52:24;93630.41;;;2.45;100.00
24610;BME280;12758;47.890;11.694;2022-12-07T05:54:50;93629.44;;;2.01;100.00
24610;BME280;12758;47.890;11.694;2022-12-07T05:57:16;93638.13;;;1.83;100.00
24610;BME280;12758;47.890;11.694;2022-12-07T05:59:42;93640.31;;;1.36;100.00
24610;BME280;12758;47.890;11.694;2022-12-07T06:02:10;93636.72;;;1.07;100.00
24610;BME280;12758;47.890;11.694;2022-12-07T06:04:37;93638.28;;;1.13;100.00
24610;BME280;12758;47.890;11.694;2022-12-07T06:07:04;93641.66;;;0.69;100.00
24610;BME280;12758;47.890;11.694;2022-12-07T06:09:31;93641.66;;;0.69;100.00
24610;BME280;12758;47.890;11.694;2022-12-07T06:11:57;93637.94;;;0.65;100.00
24610;BME280;12758;47.890;11.694;2022-12-07T06:14:42;93641.69;;;0.59;100.00
24610;BME280;12758;47.890;11.694;2022-12-07T06:17:08;93645.69;;;0.56;100.00
24610;BME280;12758;47.890;11.694;2022-12-07T06:19:35;93646.25;;;0.58;100.00
24610;BME280;12758;47.890;11.694;2022-12-07T06:22:01;93644.91;;;0.51;100.00
24610;BME280;12758;47.890;11.694;2022-12-07T06:24:28;93658.25;;;0.56;100.00
24610;BME280;12758;47.890;11.694;2022-12-07T06:26:54;93661.44;;;0.68;100.00
24610;BME280;12758;47.890;11.694;2022-12-07T06:29:20;93651.28;;;0.60;100.00
24610;BME280;12758;47.890;11.694;2022-12-07T06:31:47;93662.00;;;0.55;100.00
24610;BME280;12758;47.890;11.694;2022-12-07T06:34:15;93651.88;;;0.52;100.00
24610;BME280;12758;47.890;11.694;2022-12-07T06:36:42;93653.97;;;0.60;100.00
24610;BME280;12758;47.890;11.694;2022-12-07T06:39:08;93651.84;;;0.57;100.00
24610;BME280;12758;47.890;11.694;2022-12-07T06:41:35;93664.66;;;0.60;100.00
24610;BME280;12758;47.890;11.694;2022-12-07T06:44:02;93666.78;;;0.68;100.00
24610;BME280;12758;47.890;11.694;2022-12-07T06:46:28;93663.53;;;0.81;100.00
24610;BME280;12758;47.890;11.694;2022-12-07T06:48:54;93663.81;;;0.69;100.00
24610;BME280;12758;47.890;11.694;2022-12-07T06:51:20;93664.03;;;0.88;100.00
24610;BME280;12758;47.890;11.694;2022-12-07T06:53:47;93665.06;;;0.98;100.00
24610;BME280;12758;47.890;11.694;2022-12-07T06:56:13;93670.41;;;0.98;100.00
24610;BME280;12758;47.890;11.694;2022-12-07T06:58:39;93669.88;;;1.01;100.00
24610;BME280;12758;47.890;11.694;2022-12-07T07:01:08;93675.19;;;1.11;100.00
24610;BME280;12758;47.890;11.694;2022-12-07T07:03:35;93681.13;;;0.92;100.00
24610;BME280;12758;47.890;11.694;2022-12-07T07:06:01;93678.69;;;1.06;100.00
24610;BME280;12758;47.890;11.694;2022-12-07T07:08:27;93673.00;;;1.23;100.00
24610;BME280;12758;47.890;11.694;2022-12-07T07:10:53;93686.38;;;1.18;100.00
24610;BME280;12758;47.890;11.694;2022-12-07T07:13:19;93680.97;;;1.28;100.00
24610;BME280;12758;47.890;11.694;2022-12-07T07:15:45;93680.81;;;1.59;100.00
24610;BME280;12758;47.890;11.694;2022-12-07T07:18:11;93687.81;;;1.55;100.00
24610;BME280;12758;47.890;11.694;2022-12-07T07:20:38;93686.28;;;1.38;100.00
24610;BME280;12758;47.890;11.694;2022-12-07T07:23:04;93687.88;;;1.39;100.00
24610;BME280;12758;47.890;11.694;2022-12-07T07:25:30;93688.13;;;1.48;100.00
24610;BME280;12758;47.890;11.694;2022-12-07T07:27:56;93695.75;;;1.70;100.00
24610;BME280;12758;47.890;11.694;2022-12-07T07:30:23;93701.44;;;1.53;100.00
24610;BME280;12758;47.890;11.694;2022-12-07T07:32:50;93691.59;;;1.44;100.00
24610;BME280;12758;47.890;11.694;2022-12-07T07:35:16;93693.63;;;1.02;100.00
24610;BME280;12758;47.890;11.694;2022-12-07T07:37:42;93697.97;;;1.53;100.00
24610;BME280;12758;47.890;11.694;2022-12-07T07:40:09;93703.69;;;1.36;100.00
24610;BME280;12758;47.890;11.694;2022-12-07T07:42:35;93703.94;;;1.39;100.00
24610;BME280;12758;47.890;11.694;2022-12-07T07:45:01;93706.03;;;1.48;100.00
24610;BME280;12758;47.890;11.694;2022-12-07T07:47:28;93700.03;;;1.71;100.00
24610;BME280;12758;47.890;11.694;2022-12-07T07:49:55;93710.66;;;1.81;100.00
24610;BME280;12758;47.890;11.694;2022-12-07T07:52:22;93701.69;;;1.62;100.00
24610;BME280;12758;47.890;11.694;2022-12-07T07:54:48;93703.78;;;1.70;100.00
24610;BME280;12758;47.890;11.694;2022-12-07T07:57:16;93706.34;;;1.85;100.00
24610;BME280;12758;47.890;11.694;2022-12-07T07:59:42;93711.16;;;1.89;100.00
24610;BME280;12758;47.890;11.694;2022-12-07T08:02:09;93704.81;;;1.74;100.00
24610;BME280;12758;47.890;11.694;2022-12-07T08:04:39;93718.16;;;1.79;100.00
24610;BME280;12758;47.890;11.694;2022-12-07T08:07:05;93707.97;;;1.86;100.00
24610;BME280;12758;47.890;11.694;2022-12-07T08:09:32;93714.53;;;2.04;100.00
24610;BME280;12758;47.890;11.694;2022-12-07T08:11:58;93710.19;;;2.08;100.00
24610;BME280;12758;47.890;11.694;2022-12-07T08:14:24;93719.31;;;1.68;100.00
24610;BME280;12758;47.890;11.694;2022-12-07T08:16:50;93726.00;;;1.60;100.00
24610;BME280;12758;47.890;11.694;2022-12-07T08:19:16;93730.66;;;1.89;100.00
24610;BME280;12758;47.890;11.694;2022-12-07T08:21:42;93717.66;;;1.72;100.00
24610;BME280;12758;47.890;11.694;2022-12-07T08:24:09;93725.69;;;1.72;100.00
24610;BME280;12758;47.890;11.694;2022-12-07T08:26:35;93726.41;;;1.88;100.00
24610;BME280;12758;47.890;11.694;2022-12-07T08:29:01;93728.50;;;1.96;100.00
24610;BME280;12758;47.890;11.694;2022-12-07T08:31:27;93724.44;;;2.04;100.00
24610;BME280;12758;47.890;11.694;2022-12-07T08:33:54;93724.91;;;2.11;100.00
24610;BME280;12758;47.890;11.694;2022-12-07T08:36:20;93727.00;;;2.19;100.00
24610;BME280;12758;47.890;11.694;2022-12-07T08:38:47;93721.09;;;2.22;100.00
24610;BME280;12758;47.890;11.694;2022-12-07T08:41:13;93723.25;;;2.20;100.00
24610;BME280;12758;47.890;11.694;2022-12-07T08:43:40;93719.47;;;2.21;100.00
24610;BME280;12758;47.890;11.694;2022-12-07T08:46:08;93721.19;;;2.12;100.00
24610;BME280;12758;47.890;11.694;2022-12-07T08:48:37;93723.81;;;2.17;100.00
24610;BME280;12758;47.890;11.694;2022-12-07T08:51:05;93725.41;;;2.18;100.00
24610;BME280;12758;47.890;11.694;2022-12-07T08:53:32;93731.13;;;2.01;100.00
24610;BME280;12758;47.890;11.694;2022-12-07T08:55:59;93727.34;;;2.13;100.00
24610;BME280;12758;47.890;11.694;2022-12-07T08:58:26;93730.19;;;2.21;100.00
24610;BME280;12758;47.890;11.694;2022-12-07T09:00:52;93736.09;;;2.23;100.00
24610;BME280;12758;47.890;11.694;2022-12-07T09:03:18;93737.66;;;2.29;100.00
24610;BME280;12758;47.890;11.694;2022-12-07T09:05:44;93738.19;;;2.26;100.00
24610;BME280;12758;47.890;11.694;2022-12-07T09:08:10;93738.22;;;2.21;100.00
24610;BME280;12758;47.890;11.694;2022-12-07T09:10:36;93742.03;;;2.15;100.00
24610;BME280;12758;47.890;11.694;2022-12-07T09:13:02;93744.59;;;2.30;100.00
24610;BME280;12758;47.890;11.694;2022-12-07T09:15:30;93733.78;;;2.41;100.00
24610;BME280;12758;47.890;11.694;2022-12-07T09:17:56;93734.66;;;2.36;100.00
24610;BME280;12758;47.890;11.694;2022-12-07T09:20:22;93735.00;;;2.24;100.00
24610;BME280;12758;47.890;11.694;2022-12-07T09:22:48;93728.53;;;2.30;100.00
24610;BME280;12758;47.890;11.694;2022-12-07T09:25:14;93728.84;;;2.24;100.00
24610;BME280;12758;47.890;11.694;2022-12-07T09:27:41;93725.41;;;2.18;100.00
24610;BME280;12758;47.890;11.694;2022-12-07T09:30:07;93723.25;;;2.20;100.00
24610;BME280;12758;47.890;11.694;2022-12-07T09:32:34;93719.47;;;2.21;100.00
24610;BME280;12758;47.890;11.694;2022-12-07T09:35:00;93724.13;;;2.10;100.00
24610;BME280;12758;47.890;11.694;2022-12-07T09:37:26;93723.91;;;2.02;100.00
24610;BME280;12758;47.890;11.694;2022-12-07T09:39:52;93712.13;;;2.03;100.00
24610;BME280;12758;47.890;11.694;2022-12-07T09:42:26;93717.97;;;2.10;100.00
24610;BME280;12758;47.890;11.694;2022-12-07T09:44:53;93710.19;;;2.08;100.00
24610;BME280;12758;47.890;11.694;2022-12-07T09:47:19;93708.94;;;2.01;100.00
24610;BME280;12758;47.890;11.694;2022-12-07T09:49:46;93709.41;;;2.08;100.00
24610;BME280;12758;47.890;11.694;2022-12-07T09:52:17;93702.72;;;2.10;100.00
24610;BME280;12758;47.890;11.694;2022-12-07T09:54:46;93704.63;;;2.05;100.00
24610;BME280;12758;47.890;11.694;2022-12-07T09:57:12;93696.88;;;2.03;100.00
24610;BME280;12758;47.890;11.694;2022-12-07T09:59:39;93700.91;;;1.96;100.00
24610;BME280;12758;47.890;11.694;2022-12-07T10:02:23;93705.78;;;1.89;100.00
24610;BME280;12758;47.890;11.694;2022-12-07T10:04:51;93689.78;;;1.83;100.00
24610;BME280;12758;47.890;11.694;2022-12-07T10:07:17;93691.38;;;1.84;100.00
24610;BME280;12758;47.890;11.694;2022-12-07T10:09:43;93682.78;;;1.88;100.00
24610;BME280;12758;47.890;11.694;2022-12-07T10:12:10;93683.88;;;1.86;100.00
24610;BME280;12758;47.890;11.694;2022-12-07T10:14:37;93689.25;;;1.81;100.00
24610;BME280;12758;47.890;11.694;2022-12-07T10:17:27;93675.88;;;1.81;100.00
24610;BME280;12758;47.890;11.694;2022-12-07T10:20:14;93672.16;;;1.77;100.00
24610;BME280;12758;47.890;11.694;2022-12-07T10:22:57;93667.75;;;1.97;100.00
24610;BME280;12758;47.890;11.694;2022-12-07T10:25:26;93667.53;;;1.88;100.00
24610;BME280;12758;47.890;11.694;2022-12-07T10:28:08;93671.00;;;1.89;100.00
24610;BME280;12758;47.890;11.694;2022-12-07T10:30:52;93662.81;;;1.75;100.00
24610;BME280;12758;47.890;11.694;2022-12-07T10:33:36;93665.25;;;1.66;100.00
24610;BME280;12758;47.890;11.694;2022-12-07T10:36:17;93662.56;;;1.71;100.00
24610;BME280;12758;47.890;11.694;2022-12-07T10:38:45;93655.34;;;1.72;100.00
24610;BME280;12758;47.890;11.694;2022-12-07T10:41:12;93653.47;;;1.72;100.00
24610;BME280;12758;47.890;11.694;2022-12-07T10:43:49;93650.53;;;1.74;100.00
24610;BME280;12758;47.890;11.694;2022-12-07T10:46:41;93652.31;;;1.83;100.00
24610;BME280;12758;47.890;11.694;2022-12-07T10:49:29;93657.28;;;1.61;100.00
24610;BME280;12758;47.890;11.694;2022-12-07T10:52:06;93654.00;;;1.69;100.00
24610;BME280;12758;47.890;11.694;2022-12-07T10:54:40;93656.44;;;1.66;100.00
24610;BME280;12758;47.890;11.694;2022-12-07T10:57:20;93651.72;;;1.47;100.00
24610;BME280;12758;47.890;11.694;2022-12-07T11:00:04;93652.50;;;1.53;100.00
24610;BME280;12758;47.890;11.694;2022-12-07T11:03:07;93648.16;;;1.67;100.00
24610;BME280;12758;47.890;11.694;2022-12-07T11:05:43;93638.53;;;1.66;100.00
24610;BME280;12758;47.890;11.694;2022-12-07T11:08:17;93644.94;;;1.65;100.00
24610;BME280;12758;47.890;11.694;2022-12-07T11:10:50;93638.03;;;1.59;100.00
24610;BME280;12758;47.890;11.694;2022-12-07T11:13:27;93633.25;;;1.56;100.00
24610;BME280;12758;47.890;11.694;2022-12-07T11:16:04;93643.44;;;1.49;100.00
24610;BME280;12758;47.890;11.694;2022-12-07T11:18:40;93640.25;;;1.47;100.00
24610;BME280;12758;47.890;11.694;2022-12-07T11:21:11;93631.97;;;1.43;100.00
24610;BME280;12758;47.890;11.694;2022-12-07T11:23:49;93632.28;;;1.42;100.00
24610;BME280;12758;47.890;11.694;2022-12-07T11:26:26;93632.28;;;1.42;100.00
24610;BME280;12758;47.890;11.694;2022-12-07T11:29:05;93625.31;;;1.40;100.00
24610;BME280;12758;47.890;11.694;2022-12-07T11:31:37;93622.59;;;1.46;100.00
24610;BME280;12758;47.890;11.694;2022-12-07T11:34:10;93617.81;;;1.43;100.00
24610;BME280;12758;47.890;11.694;2022-12-07T11:36:41;93621.03;;;1.45;100.00
24610;BME280;12758;47.890;11.694;2022-12-07T11:39:15;93607.59;;;1.50;100.00
24610;BME280;12758;47.890;11.694;2022-12-07T11:41:46;93612.94;;;1.50;100.00
24610;BME280;12758;47.890;11.694;2022-12-07T11:44:20;93609.78;;;1.48;100.00
24610;BME280;12758;47.890;11.694;2022-12-07T11:46:50;93609.78;;;1.48;100.00
24610;BME280;12758;47.890;11.694;2022-12-07T11:49:22;93617.22;;;1.51;100.00
24610;BME280;12758;47.890;11.694;2022-12-07T11:51:53;93609.19;;;1.51;100.00
24610;BME280;12758;47.890;11.694;2022-12-07T11:54:23;93599.56;;;1.55;100.00
24610;BME280;12758;47.890;11.694;2022-12-07T11:56:51;93602.25;;;1.50;100.00
24610;BME280;12758;47.890;11.694;2022-12-07T11:59:23;93602.19;;;1.60;100.00
24610;BME280;12758;47.890;11.694;2022-12-07T12:01:55;93604.03;;;1.65;100.00
24610;BME280;12758;47.890;11.694;2022-12-07T12:04:27;93603.16;;;1.74;100.00
24610;BME280;12758;47.890;11.694;2022-12-07T12:06:56;93610.03;;;1.85;100.00
24610;BME280;12758;47.890;11.694;2022-12-07T12:09:26;93598.53;;;1.85;100.00
24610;BME280;12758;47.890;11.694;2022-12-07T12:12:22;93587.06;;;1.79;100.00
24610;BME280;12758;47.890;11.694;2022-12-07T12:14:58;93584.56;;;1.93;100.00
24610;BME280;12758;47.890;11.694;2022-12-07T12:17:50;93590.69;;;1.94;100.00
24610;BME280;12758;47.890;11.694;2022-12-07T12:20:36;93586.28;;;2.08;100.00
24610;BME280;12758;47.890;11.694;2022-12-07T12:23:07;93586.84;;;2.05;100.00
24610;BME280;12758;47.890;11.694;2022-12-07T12:25:38;93580.47;;;2.01;100.00
24610;BME280;12758;47.890;11.694;2022-12-07T12:28:15;93580.31;;;1.87;100.00
24610;BME280;12758;47.890;11.694;2022-12-07T12:30:44;93583.31;;;1.80;100.00
24610;BME280;12758;47.890;11.694;2022-12-07T12:33:14;93586.69;;;1.91;100.00
24610;BME280;12758;47.890;11.694;2022-12-07T12:35:42;93579.91;;;2.04;100.00
24610;BME280;12758;47.890;11.694;2022-12-07T12:38:31;93563.25;;;2.12;100.00
24610;BME280;12758;47.890;11.694;2022-12-07T12:41:00;93561.72;;;2.01;100.00
24610;BME280;12758;47.890;11.694;2022-12-07T12:43:47;93570.22;;;2.08;100.00
24610;BME280;12758;47.890;11.694;2022-12-07T12:46:48;93565.91;;;2.12;100.00
24610;BME280;12758;47.890;11.694;2022-12-07T12:49:43;93571.34;;;2.02;100.00
24610;BME280;12758;47.890;11.694;2022-12-07T12:52:47;93565.91;;;2.12;100.00
24610;BME280;12758;47.890;11.694;2022-12-07T12:58:40;93566.19;;;2.10;100.00
24610;BME280;12758;47.890;11.694;2022-12-07T13:01:35;93562.72;;;2.10;100.00
24610;BME280;12758;47.890;11.694;2022-12-07T13:04:14;93561.03;;;2.19;100.00
24610;BME280;12758;47.890;11.694;2022-12-07T13:06:42;93555.66;;;2.19;100.00